createdAt,value
2018-02-15T00:02:38.760Z,-6.35
2018-02-15T00:05:44.578Z,-6.32
2018-02-15T00:08:49.372Z,-6.42
2018-02-15T00:11:52.650Z,-6.34
2018-02-15T00:14:55.923Z,-6.43
2018-02-15T00:17:59.982Z,-6.45
2018-02-15T00:21:03.413Z,-6.41
2018-02-15T00:24:06.696Z,-6.49
2018-02-15T00:27:09.993Z,-6.45
2018-02-15T00:30:14.515Z,-6.54
2018-02-15T00:33:17.801Z,-6.44
2018-02-15T00:36:21.172Z,-6.50
2018-02-15T00:39:24.685Z,-6.62
2018-02-15T00:42:27.982Z,-6.54
2018-02-15T00:45:31.261Z,-6.56
2018-02-15T00:48:35.314Z,-6.61
2018-02-15T00:51:38.645Z,-6.55
2018-02-15T00:54:42.159Z,-6.49
2018-02-15T00:57:46.546Z,-6.57
2018-02-15T01:00:49.830Z,-6.67
2018-02-15T01:03:53.102Z,-6.84
2018-02-15T01:10:02.056Z,-6.78
2018-02-15T01:13:06.178Z,-6.77
2018-02-15T01:16:09.466Z,-6.67
2018-02-15T01:19:13.598Z,-6.77
2018-02-15T01:22:16.876Z,-6.90
2018-02-15T01:25:20.914Z,-6.88
2018-02-15T01:28:24.202Z,-6.83
2018-02-15T01:31:28.243Z,-6.88
2018-02-15T01:34:31.514Z,-6.89
2018-02-15T01:37:34.804Z,-6.87
2018-02-15T01:40:38.840Z,-6.89
2018-02-15T01:43:42.497Z,-7.00
2018-02-15T01:46:45.853Z,-7.05
2018-02-15T01:50:05.311Z,-7.02
2018-02-15T01:53:08.605Z,-7.24
2018-02-15T01:56:12.633Z,-7.32
2018-02-15T01:59:16.015Z,-7.26
2018-02-15T02:02:19.314Z,-7.24
2018-02-15T02:05:23.551Z,-7.18
2018-02-15T02:08:26.833Z,-7.17
2018-02-15T02:11:30.096Z,-7.15
2018-02-15T02:14:36.788Z,-7.14
2018-02-15T02:17:41.440Z,-7.18
2018-02-15T02:20:44.742Z,-7.24
2018-02-15T02:23:49.283Z,-7.35
2018-02-15T02:26:52.579Z,-7.31
2018-02-15T02:29:55.862Z,-7.34
2018-02-15T02:32:59.151Z,-7.28
2018-02-15T02:36:02.457Z,-7.19
2018-02-15T02:39:06.101Z,-7.15
2018-02-15T02:42:09.379Z,-7.09
2018-02-15T02:45:12.656Z,-7.03
2018-02-15T02:48:15.956Z,-6.99
2018-02-15T02:51:20.465Z,-6.99
2018-02-15T02:54:25.726Z,-7.04
2018-02-15T02:57:29.011Z,-7.05
2018-02-15T03:00:33.081Z,-6.98
2018-02-15T03:03:36.386Z,-7.11
2018-02-15T03:06:39.688Z,-7.08
2018-02-15T03:09:42.973Z,-7.05
2018-02-15T03:12:46.270Z,-6.97
2018-02-15T03:15:51.544Z,-6.98
2018-02-15T03:18:54.831Z,-6.98
2018-02-15T03:21:58.104Z,-7.07
2018-02-15T03:25:08.532Z,-7.12
2018-02-15T03:28:11.837Z,-7.00
2018-02-15T03:31:15.135Z,-7.09
2018-02-15T03:34:19.185Z,-7.16
2018-02-15T03:37:22.500Z,-7.22
2018-02-15T03:40:25.760Z,-7.25
2018-02-15T03:43:29.046Z,-7.28
2018-02-15T03:46:33.079Z,-7.22
2018-02-15T03:49:36.361Z,-7.19
2018-02-15T03:52:39.644Z,-7.14
2018-02-15T03:55:43.692Z,-7.12
2018-02-15T03:58:47.007Z,-7.10
2018-02-15T04:01:50.311Z,-7.09
2018-02-15T04:04:53.590Z,-7.06
2018-02-15T04:07:56.856Z,-6.99
2018-02-15T04:11:00.909Z,-6.94
2018-02-15T04:14:04.200Z,-6.85
2018-02-15T04:17:07.476Z,-6.81
2018-02-15T04:20:11.521Z,-6.82
2018-02-15T04:23:14.808Z,-6.85
2018-02-15T04:26:18.083Z,-6.74
2018-02-15T04:29:23.748Z,-6.67
2018-02-15T04:32:27.061Z,-6.66
2018-02-15T04:35:36.501Z,-6.91
2018-02-15T04:38:39.797Z,-7.05
2018-02-15T04:41:43.096Z,-7.14
2018-02-15T04:44:46.378Z,-7.04
2018-02-15T04:47:49.668Z,-6.91
2018-02-15T04:50:53.590Z,-6.92
2018-02-15T04:53:57.817Z,-6.81
2018-02-15T04:57:01.092Z,-6.84
2018-02-15T05:00:05.343Z,-6.75
2018-02-15T05:03:08.639Z,-6.85
2018-02-15T05:06:11.933Z,-6.79
2018-02-15T05:09:15.233Z,-6.69
2018-02-15T05:12:28.776Z,-6.61
2018-02-15T05:15:33.653Z,-6.53
2018-02-15T05:18:37.415Z,-6.44
2018-02-15T05:21:41.708Z,-6.30
2018-02-15T05:24:45.080Z,-6.28
2018-02-15T05:27:49.321Z,-6.32
2018-02-15T05:30:52.762Z,-6.21
2018-02-15T05:33:56.241Z,-6.17
2018-02-15T05:36:59.839Z,-6.06
2018-02-15T05:40:04.992Z,-5.99
2018-02-15T05:43:08.544Z,-6.14
2018-02-15T05:46:11.834Z,-6.10
2018-02-15T05:49:15.100Z,-6.06
2018-02-15T05:52:18.364Z,-6.11
2018-02-15T05:55:23.877Z,-6.05
2018-02-15T05:58:27.280Z,-6.12
2018-02-15T06:01:30.578Z,-6.07
2018-02-15T06:04:33.892Z,-6.11
2018-02-15T06:07:37.185Z,-6.18
2018-02-15T06:10:40.449Z,-6.18
2018-02-15T06:13:43.724Z,-6.12
2018-02-15T06:16:47.012Z,-6.05
2018-02-15T06:19:50.301Z,-5.96
2018-02-15T06:23:00.196Z,-6.06
2018-02-15T06:26:04.064Z,-5.94
2018-02-15T06:29:08.107Z,-5.99
2018-02-15T06:32:11.413Z,-6.05
2018-02-15T06:35:14.685Z,-6.08
2018-02-15T06:38:17.962Z,-6.11
2018-02-15T06:41:21.989Z,-6.03
2018-02-15T06:44:25.716Z,-5.89
2018-02-15T06:47:28.989Z,-5.79
2018-02-15T06:50:33.256Z,-5.74
2018-02-15T06:53:36.549Z,-5.64
2018-02-15T06:56:39.830Z,-5.61
2018-02-15T06:59:43.104Z,-5.48
2018-02-15T07:02:47.154Z,-5.46
2018-02-15T07:05:50.426Z,-5.31
2018-02-15T07:08:53.702Z,-5.09
2018-02-15T07:11:57.944Z,-4.98
2018-02-15T07:15:01.958Z,-4.92
2018-02-15T07:18:05.267Z,-4.85
2018-02-15T07:21:08.713Z,-4.74
2018-02-15T07:24:12.039Z,-4.52
2018-02-15T07:27:15.317Z,-4.52
2018-02-15T07:30:18.802Z,-4.52
2018-02-15T07:33:22.868Z,-4.41
2018-02-15T07:36:27.435Z,-4.22
2018-02-15T07:39:31.711Z,-4.30
2018-02-15T07:42:35.046Z,-4.15
2018-02-15T07:45:38.372Z,-4.06
2018-02-15T07:48:41.705Z,-4.08
2018-02-15T07:51:44.981Z,-3.96
2018-02-15T07:54:49.023Z,-3.88
2018-02-15T07:57:52.320Z,-3.87
2018-02-15T08:00:55.588Z,-3.84
2018-02-15T08:03:58.880Z,-3.81
2018-02-15T08:07:02.204Z,-3.65
2018-02-15T08:10:06.289Z,-3.42
2018-02-15T08:13:09.573Z,-3.45
2018-02-15T08:16:12.868Z,-3.54
2018-02-15T08:19:16.169Z,-3.09
2018-02-15T08:22:19.499Z,-3.11
2018-02-15T08:25:23.529Z,-3.09
2018-02-15T08:28:27.670Z,-3.02
2018-02-15T08:31:30.962Z,-2.68
2018-02-15T08:34:34.280Z,-2.51
2018-02-15T08:37:37.567Z,-2.38
2018-02-15T08:40:40.909Z,-2.27
2018-02-15T08:43:44.230Z,-2.20
2018-02-15T08:46:48.271Z,-1.89
2018-02-15T08:49:51.549Z,-1.73
2018-02-15T08:52:54.845Z,-1.73
2018-02-15T08:55:58.388Z,-1.59
2018-02-15T08:59:01.671Z,-1.47
2018-02-15T09:02:04.959Z,-1.51
2018-02-15T09:05:08.244Z,-1.43
2018-02-15T09:08:11.529Z,-1.27
2018-02-15T09:11:15.581Z,-1.40
2018-02-15T09:14:18.853Z,-1.38
2018-02-15T09:17:22.899Z,-1.31
2018-02-15T09:20:26.266Z,-0.99
2018-02-15T09:23:29.639Z,-0.74
2018-02-15T09:26:32.913Z,-0.87
2018-02-15T09:29:36.199Z,-0.76
2018-02-15T09:32:39.498Z,-0.47
2018-02-15T09:35:42.786Z,-0.71
2018-02-15T09:38:46.060Z,-0.48
2018-02-15T09:41:49.332Z,-0.72
2018-02-15T09:44:53.464Z,-0.36
2018-02-15T09:47:57.534Z,-0.10
2018-02-15T09:51:01.709Z,0.22
2018-02-15T09:54:05.009Z,0.75
2018-02-15T09:57:08.270Z,1.09
2018-02-15T10:00:11.610Z,0.21
2018-02-15T10:03:14.904Z,0.08
2018-02-15T10:06:18.174Z,0.13
2018-02-15T10:09:22.256Z,1.19
2018-02-15T10:12:25.532Z,1.19
2018-02-15T10:15:30.839Z,0.97
2018-02-15T10:18:34.880Z,0.65
2018-02-15T10:21:38.143Z,1.04
2018-02-15T10:24:42.170Z,1.27
2018-02-15T10:27:46.207Z,1.27
2018-02-15T10:30:49.489Z,1.25
2018-02-15T10:33:52.753Z,0.92
2018-02-15T10:36:56.027Z,1.48
2018-02-15T10:40:00.583Z,1.41
2018-02-15T10:43:04.732Z,1.16
2018-02-15T10:46:08.021Z,1.76
2018-02-15T10:49:11.281Z,2.08
2018-02-15T10:52:14.552Z,2.16
2018-02-15T10:55:17.929Z,2.54
2018-02-15T10:58:21.189Z,1.79
2018-02-15T11:01:30.757Z,1.95
2018-02-15T11:04:34.954Z,1.19
2018-02-15T11:07:38.264Z,1.24
2018-02-15T11:10:42.299Z,1.69
2018-02-15T11:13:45.561Z,2.03
2018-02-15T11:16:49.608Z,2.04
2018-02-15T11:19:52.876Z,2.28
2018-02-15T11:22:56.916Z,2.15
2018-02-15T11:26:00.176Z,2.29
2018-02-15T11:29:03.464Z,1.99
2018-02-15T11:32:07.398Z,2.49
2018-02-15T11:35:11.442Z,2.14
2018-02-15T11:38:14.727Z,2.10
2018-02-15T11:41:18.744Z,2.63
2018-02-15T11:44:22.023Z,2.25
2018-02-15T11:47:26.058Z,2.24
2018-02-15T11:50:29.329Z,2.54
2018-02-15T11:53:33.372Z,3.03
2018-02-15T11:56:36.683Z,2.98
2018-02-15T11:59:40.769Z,3.10
2018-02-15T12:02:45.726Z,3.11
2018-02-15T12:05:48.989Z,2.71
2018-02-15T12:08:52.272Z,2.93
2018-02-15T12:11:55.528Z,2.81
2018-02-15T12:14:58.900Z,2.83
2018-02-15T12:18:03.947Z,2.98
2018-02-15T12:21:07.216Z,3.00
2018-02-15T12:24:10.481Z,2.76
2018-02-15T12:27:13.741Z,2.54
2018-02-15T12:30:17.014Z,2.70
2018-02-15T12:33:21.050Z,2.88
2018-02-15T12:36:24.334Z,2.72
2018-02-15T12:39:27.797Z,2.96
2018-02-15T12:42:31.068Z,2.75
2018-02-15T12:45:34.363Z,2.98
2018-02-15T12:48:37.640Z,2.83
2018-02-15T12:51:41.834Z,3.00
2018-02-15T12:54:46.647Z,2.74
2018-02-15T12:57:49.900Z,2.71
2018-02-15T13:00:53.164Z,3.01
2018-02-15T13:03:57.206Z,3.07
2018-02-15T13:07:00.499Z,3.01
2018-02-15T13:10:05.529Z,3.12
2018-02-15T13:13:27.309Z,3.35
2018-02-15T13:16:48.466Z,3.39
2018-02-15T13:20:23.857Z,3.60
2018-02-15T13:23:27.148Z,3.76
2018-02-15T13:26:30.416Z,3.44
2018-02-15T13:29:35.681Z,3.44
2018-02-15T13:32:39.071Z,3.19
2018-02-15T13:35:43.757Z,3.08
2018-02-15T13:38:47.029Z,3.14
2018-02-15T13:41:50.422Z,3.23
2018-02-15T13:44:53.678Z,3.36
2018-02-15T13:47:57.733Z,2.78
2018-02-15T13:51:01.049Z,2.41
2018-02-15T13:54:04.320Z,2.51
2018-02-15T13:57:07.583Z,2.34
2018-02-15T14:00:11.607Z,2.41
2018-02-15T14:03:15.642Z,2.30
2018-02-15T14:06:18.906Z,2.22
2018-02-15T14:09:22.775Z,2.36
2018-02-15T14:12:26.817Z,2.20
2018-02-15T14:15:30.086Z,2.11
2018-02-15T14:18:33.365Z,2.07
2018-02-15T14:21:37.701Z,1.60
2018-02-15T14:24:40.961Z,1.53
2018-02-15T14:27:45.015Z,1.58
2018-02-15T14:30:48.336Z,1.39
2018-02-15T14:33:51.628Z,1.61
2018-02-15T14:36:54.909Z,1.54
2018-02-15T14:39:58.188Z,1.47
2018-02-15T14:43:01.448Z,1.21
2018-02-15T14:46:05.568Z,1.10
2018-02-15T14:49:09.602Z,1.32
2018-02-15T14:52:12.913Z,1.32
2018-02-15T14:55:17.797Z,1.32
2018-02-15T14:58:21.085Z,1.35
2018-02-15T15:01:24.359Z,1.34
2018-02-15T15:04:27.650Z,1.22
2018-02-15T15:07:43.751Z,1.19
2018-02-15T15:11:01.769Z,1.12
2018-02-15T15:14:06.197Z,1.04
2018-02-15T15:17:10.588Z,1.05
2018-02-15T15:20:14.873Z,1.00
2018-02-15T15:23:18.380Z,0.91
2018-02-15T15:26:21.876Z,0.91
2018-02-15T15:29:25.618Z,0.83
2018-02-15T15:32:29.590Z,0.89
2018-02-15T15:35:33.139Z,0.94
2018-02-15T15:38:38.266Z,0.95
2018-02-15T15:41:42.631Z,0.95
2018-02-15T15:44:46.598Z,0.94
2018-02-15T15:47:50.180Z,0.95
2018-02-15T15:50:53.483Z,0.96
2018-02-15T15:53:56.818Z,0.89
2018-02-15T15:57:00.857Z,0.84
2018-02-15T16:00:04.364Z,0.85
2018-02-15T16:03:07.738Z,0.85
2018-02-15T16:06:11.925Z,0.90
2018-02-15T16:09:15.257Z,0.85
2018-02-15T16:12:19.322Z,0.79
2018-02-15T16:15:23.784Z,0.89
2018-02-15T16:18:28.651Z,0.95
2018-02-15T16:21:32.266Z,1.03
2018-02-15T16:24:35.938Z,1.04
2018-02-15T16:27:40.421Z,1.04
2018-02-15T16:30:43.888Z,0.99
2018-02-15T16:33:47.618Z,1.04
2018-02-15T16:36:51.240Z,1.09
2018-02-15T16:39:56.110Z,1.09
2018-02-15T16:42:59.788Z,1.02
2018-02-15T16:46:03.092Z,1.11
2018-02-15T16:49:06.812Z,1.08
2018-02-15T16:52:10.451Z,1.07
2018-02-15T16:55:13.769Z,1.07
2018-02-15T16:58:17.067Z,1.04
2018-02-15T17:01:20.333Z,1.15
2018-02-15T17:04:24.375Z,1.24
2018-02-15T17:07:27.864Z,1.13
2018-02-15T17:10:31.242Z,1.14
2018-02-15T17:13:34.551Z,1.16
2018-02-15T17:16:39.449Z,1.16
2018-02-15T17:19:44.061Z,1.10
2018-02-15T17:22:47.340Z,1.16
2018-02-15T17:25:51.464Z,1.20
2018-02-15T17:28:54.953Z,1.21
2018-02-15T17:31:58.853Z,1.22
2018-02-15T17:35:02.913Z,1.26
2018-02-15T17:38:06.188Z,1.24
2018-02-15T17:41:09.455Z,1.28
2018-02-15T17:44:14.751Z,1.24
2018-02-15T17:47:18.014Z,1.32
2018-02-15T17:50:21.288Z,1.42
2018-02-15T17:53:25.541Z,1.50
2018-02-15T17:56:28.815Z,1.49
2018-02-15T17:59:32.856Z,1.56
2018-02-15T18:02:36.136Z,1.61
2018-02-15T18:05:40.174Z,1.52
2018-02-15T18:08:43.678Z,1.59
2018-02-15T18:11:47.084Z,1.58
2018-02-15T18:14:50.586Z,1.57
2018-02-15T18:17:54.053Z,1.56
2018-02-15T18:20:57.666Z,1.58
2018-02-15T18:24:01.100Z,1.59
2018-02-15T18:27:04.649Z,1.56
2018-02-15T18:30:08.308Z,1.58
2018-02-15T18:33:11.652Z,1.61
2018-02-15T18:36:17.024Z,1.66
2018-02-15T18:39:20.403Z,1.68
2018-02-15T18:42:24.457Z,1.67
2018-02-15T18:45:27.793Z,1.68
2018-02-15T18:48:31.128Z,1.66
2018-02-15T18:51:35.229Z,1.64
2018-02-15T18:54:39.351Z,1.66
2018-02-15T18:57:43.475Z,1.68
2018-02-15T19:00:47.590Z,1.68
2018-02-15T19:03:52.704Z,1.69
2018-02-15T19:06:57.637Z,1.68
2018-02-15T19:10:00.898Z,1.68
2018-02-15T19:13:04.166Z,1.67
2018-02-15T19:16:08.197Z,1.69
2018-02-15T19:19:11.509Z,1.75
2018-02-15T19:22:14.829Z,1.75
2018-02-15T19:25:18.586Z,1.77
2018-02-15T19:28:22.609Z,1.79
2018-02-15T19:31:25.926Z,1.81
2018-02-15T19:34:29.179Z,1.78
2018-02-15T19:37:33.217Z,1.77
2018-02-15T19:40:36.520Z,1.80
2018-02-15T19:43:40.186Z,1.84
2018-02-15T19:46:43.468Z,1.81
2018-02-15T19:49:46.729Z,1.82
2018-02-15T19:52:50.023Z,1.87
2018-02-15T19:55:53.601Z,1.93
2018-02-15T19:58:57.648Z,1.93
2018-02-15T20:02:01.209Z,1.93
2018-02-15T20:05:04.476Z,1.80
2018-02-15T20:08:07.792Z,1.80
2018-02-15T20:11:11.066Z,1.80
2018-02-15T20:14:15.288Z,1.84
2018-02-15T20:17:18.613Z,1.93
2018-02-15T20:20:24.773Z,1.87
2018-02-15T20:23:28.137Z,1.90
2018-02-15T20:26:36.944Z,1.87
2018-02-15T20:29:40.322Z,1.95
2018-02-15T20:32:43.798Z,1.93
2018-02-15T20:35:47.914Z,2.03
2018-02-15T20:38:58.128Z,2.05
2018-02-15T20:42:01.461Z,2.07
2018-02-15T20:45:05.585Z,2.11
2018-02-15T20:48:09.685Z,2.13
2018-02-15T20:51:18.653Z,2.14
2018-02-15T20:54:29.062Z,2.16
2018-02-15T20:57:32.430Z,2.18
2018-02-15T21:00:35.825Z,2.25
2018-02-15T21:03:39.909Z,2.26
2018-02-15T21:06:43.267Z,2.25
2018-02-15T21:09:46.605Z,2.29
2018-02-15T21:12:49.933Z,2.32
2018-02-15T21:15:53.288Z,2.31
2018-02-15T21:18:58.136Z,2.35
2018-02-15T21:22:02.260Z,2.32
2018-02-15T21:25:06.371Z,2.29
2018-02-15T21:28:09.701Z,2.23
2018-02-15T21:31:13.085Z,2.26
2018-02-15T21:34:17.189Z,2.31
2018-02-15T21:37:20.512Z,2.34
2018-02-15T21:40:23.859Z,2.43
2018-02-15T21:43:27.189Z,2.50
2018-02-15T21:46:30.545Z,2.55
2018-02-15T21:49:33.923Z,2.46
2018-02-15T21:52:38.158Z,2.49
2018-02-15T21:55:41.489Z,2.46
2018-02-15T21:58:45.653Z,2.46
2018-02-15T22:01:49.153Z,2.42
2018-02-15T22:04:54.498Z,2.48
2018-02-15T22:07:57.974Z,2.52
2018-02-15T22:11:04.483Z,2.64
2018-02-15T22:14:40.874Z,2.62
2018-02-15T22:17:46.137Z,2.62
2018-02-15T22:20:50.365Z,2.68
2018-02-15T22:23:55.487Z,2.59
2018-02-15T22:26:59.761Z,2.65
2018-02-15T22:30:03.354Z,2.62
2018-02-15T22:33:07.544Z,2.69
2018-02-15T22:36:10.886Z,2.67
2018-02-15T22:39:15.004Z,2.69
2018-02-15T22:42:18.345Z,2.77
2018-02-15T22:45:22.459Z,2.80
2018-02-15T22:48:25.837Z,2.82
2018-02-15T22:51:30.059Z,2.82
2018-02-15T22:54:34.152Z,2.81
2018-02-15T22:57:38.253Z,2.73
2018-02-15T23:00:41.622Z,2.78
2018-02-15T23:03:44.949Z,2.71
2018-02-15T23:06:48.473Z,2.70
2018-02-15T23:09:51.825Z,2.70
2018-02-15T23:12:55.612Z,2.67
2018-02-15T23:15:58.955Z,2.75
2018-02-15T23:19:02.317Z,2.78
2018-02-15T23:22:05.830Z,2.79
2018-02-15T23:25:09.175Z,2.80
2018-02-15T23:28:12.518Z,2.85
2018-02-15T23:31:15.866Z,2.82
2018-02-15T23:34:19.208Z,2.93
2018-02-15T23:37:22.572Z,2.89
2018-02-15T23:40:26.130Z,2.88
2018-02-15T23:43:29.469Z,3.03
2018-02-15T23:46:32.864Z,2.91
2018-02-15T23:49:36.245Z,2.99
2018-02-15T23:52:39.573Z,3.00
2018-02-15T23:55:42.904Z,2.97
2018-02-15T23:58:46.257Z,3.08
